Engis, Belgium
Current Conditions -  °F | °C
As of 7:20 PM on Monday 26 Jan 2015 (Local Time) from EBLG Reporting Station
Broken Clouds Broken Clouds  
Wind Chill: 36°   Ceiling: 4000
Heat Index: 41°   Visibility: 6mi
Dew Point: 37°   Wind: 8mph
Humidity: 87%   Direction: 300°WNW
Pressure: 30.12"   Gusts: NA
Location:  50.58°N, 5.4°E
Report Text: EBLG 261820Z 30007KT 9999 SCT008 BKN040 05/03 Q1020 NOSIG
Loading
Personal Weather Stations






























Interactive Weather Map New forecast layout! Learn more

10-Day Weather Forecast

Advertisements
Track Severe Weather on mobile